sensor_id;sensor_type;location;lat;lon;timestamp;pressure;altitude;pressure_sealevel;temperature;humidity
64298;BME280;50639;53.270;7.956;2023-02-08T00:00:58;106573.31;;;-2.03;100.00
64298;BME280;50639;53.270;7.956;2023-02-08T00:03:24;106629.63;;;-2.04;100.00
64298;BME280;50639;53.270;7.956;2023-02-08T00:05:49;106570.66;;;-2.00;100.00
64298;BME280;50639;53.270;7.956;2023-02-08T00:08:15;106654.22;;;-1.96;100.00
64298;BME280;50639;53.270;7.956;2023-02-08T00:10:41;106702.59;;;-1.92;100.00
64298;BME280;50639;53.270;7.956;2023-02-08T00:13:07;106724.56;;;-1.90;100.00
64298;BME280;50639;53.270;7.956;2023-02-08T00:15:33;106699.94;;;-1.92;100.00
64298;BME280;50639;53.270;7.956;2023-02-08T00:17:58;106697.31;;;-1.94;100.00
64298;BME280;50639;53.270;7.956;2023-02-08T00:20:24;106676.19;;;-1.94;100.00
64298;BME280;50639;53.270;7.956;2023-02-08T00:22:49;106668.28;;;-1.97;100.00
64298;BME280;50639;53.270;7.956;2023-02-08T00:25:14;106647.19;;;-2.00;100.00
64298;BME280;50639;53.270;7.956;2023-02-08T00:27:40;106653.34;;;-1.99;100.00
64298;BME280;50639;53.270;7.956;2023-02-08T00:30:07;106714.03;;;-1.96;100.00
64298;BME280;50639;53.270;7.956;2023-02-08T00:32:33;106690.28;;;-1.98;100.00
64298;BME280;50639;53.270;7.956;2023-02-08T00:34:58;106683.25;;;-1.99;100.00
64298;BME280;50639;53.270;7.956;2023-02-08T00:37:23;106684.16;;;-2.01;100.00
64298;BME280;50639;53.270;7.956;2023-02-08T00:39:49;106664.78;;;-2.02;100.00
64298;BME280;50639;53.270;7.956;2023-02-08T00:42:14;106685.00;;;-2.02;100.00
64298;BME280;50639;53.270;7.956;2023-02-08T00:44:41;106667.41;;;-2.05;100.00
64298;BME280;50639;53.270;7.956;2023-02-08T00:47:06;106618.19;;;-2.09;100.00
64298;BME280;50639;53.270;7.956;2023-02-08T00:49:32;106643.72;;;-2.09;100.00
64298;BME280;50639;53.270;7.956;2023-02-08T00:51:57;106683.28;;;-2.08;100.00
64298;BME280;50639;53.270;7.956;2023-02-08T00:54:23;106690.28;;;-2.07;100.00
64298;BME280;50639;53.270;7.956;2023-02-08T00:56:48;106729.00;;;-2.06;100.00
64298;BME280;50639;53.270;7.956;2023-02-08T00:59:13;106700.84;;;-2.07;100.00
64298;BME280;50639;53.270;7.956;2023-02-08T01:01:40;106684.13;;;-2.09;100.00
64298;BME280;50639;53.270;7.956;2023-02-08T01:04:05;106670.97;;;-2.12;100.00
64298;BME280;50639;53.270;7.956;2023-02-08T01:06:32;106631.38;;;-2.15;100.00
64298;BME280;50639;53.270;7.956;2023-02-08T01:08:57;106639.31;;;-2.16;100.00
64298;BME280;50639;53.270;7.956;2023-02-08T01:11:24;106606.78;;;-2.20;100.00
64298;BME280;50639;53.270;7.956;2023-02-08T01:13:51;106595.38;;;-2.22;100.00
64298;BME280;50639;53.270;7.956;2023-02-08T01:16:32;106598.88;;;-2.23;100.00
64298;BME280;50639;53.270;7.956;2023-02-08T01:19:00;106588.34;;;-2.24;100.00
64298;BME280;50639;53.270;7.956;2023-02-08T01:21:31;106612.06;;;-2.24;100.00
64298;BME280;50639;53.270;7.956;2023-02-08T01:23:57;106583.94;;;-2.27;100.00
64298;BME280;50639;53.270;7.956;2023-02-08T01:26:24;106543.50;;;-2.30;100.00
64298;BME280;50639;53.270;7.956;2023-02-08T01:28:50;106479.38;;;-2.40;100.00
64298;BME280;50639;53.270;7.956;2023-02-08T01:31:21;106511.03;;;-2.40;100.00
64298;BME280;50639;53.270;7.956;2023-02-08T01:33:47;106564.63;;;-2.38;100.00
64298;BME280;50639;53.270;7.956;2023-02-08T01:36:13;106577.81;;;-2.38;100.00
64298;BME280;50639;53.270;7.956;2023-02-08T01:38:41;106605.06;;;-2.36;100.00
64298;BME280;50639;53.270;7.956;2023-02-08T01:41:13;106556.72;;;-2.38;100.00
64298;BME280;50639;53.270;7.956;2023-02-08T01:46:47;106600.69;;;-2.35;100.00
64298;BME280;50639;53.270;7.956;2023-02-08T01:51:56;106708.78;;;-2.28;100.00
64298;BME280;50639;53.270;7.956;2023-02-08T01:54:26;106720.22;;;-2.26;100.00
64298;BME280;50639;53.270;7.956;2023-02-08T01:56:53;106645.50;;;-2.29;100.00
64298;BME280;50639;53.270;7.956;2023-02-08T01:59:31;106581.31;;;-2.33;100.00
64298;BME280;50639;53.270;7.956;2023-02-08T02:01:58;106594.50;;;-2.33;100.00
64298;BME280;50639;53.270;7.956;2023-02-08T02:04:25;106626.16;;;-2.31;100.00
64298;BME280;50639;53.270;7.956;2023-02-08T02:06:54;106547.06;;;-2.36;100.00
64298;BME280;50639;53.270;7.956;2023-02-08T02:09:27;106530.38;;;-2.39;100.00
64298;BME280;50639;53.270;7.956;2023-02-08T02:11:56;106497.84;;;-2.41;100.00
64298;BME280;50639;53.270;7.956;2023-02-08T02:14:23;106560.22;;;-2.39;100.00
64298;BME280;50639;53.270;7.956;2023-02-08T02:16:49;106479.38;;;-2.43;100.00
64298;BME280;50639;53.270;7.956;2023-02-08T02:30:34;106346.81;;;-2.66;100.00
64298;BME280;50639;53.270;7.956;2023-02-08T02:33:15;106388.97;;;-2.65;100.00
64298;BME280;50639;53.270;7.956;2023-02-08T02:44:36;106494.38;;;-2.57;100.00
64298;BME280;50639;53.270;7.956;2023-02-08T02:47:12;106447.81;;;-2.58;100.00
64298;BME280;50639;53.270;7.956;2023-02-08T02:49:54;106456.59;;;-2.56;100.00
64298;BME280;50639;53.270;7.956;2023-02-08T02:52:30;106446.91;;;-2.54;100.00
64298;BME280;50639;53.270;7.956;2023-02-08T02:55:06;106444.28;;;-2.54;100.00
64298;BME280;50639;53.270;7.956;2023-02-08T02:57:34;106356.41;;;-2.59;100.00
64298;BME280;50639;53.270;7.956;2023-02-08T03:00:06;106319.53;;;-2.62;100.00
64298;BME280;50639;53.270;7.956;2023-02-08T03:02:31;106334.47;;;-2.63;100.00
64298;BME280;50639;53.270;7.956;2023-02-08T03:04:57;106352.91;;;-2.61;100.00
64298;BME280;50639;53.270;7.956;2023-02-08T03:07:49;106388.94;;;-2.60;100.00
64298;BME280;50639;53.270;7.956;2023-02-08T03:13:25;106406.50;;;-2.59;100.00
64298;BME280;50639;53.270;7.956;2023-02-08T03:21:09;106295.84;;;-2.68;100.00
64298;BME280;50639;53.270;7.956;2023-02-08T03:23:54;106261.63;;;-2.74;100.00
64298;BME280;50639;53.270;7.956;2023-02-08T03:26:30;106315.19;;;-2.71;100.00
64298;BME280;50639;53.270;7.956;2023-02-08T03:29:12;106316.06;;;-2.70;100.00
64298;BME280;50639;53.270;7.956;2023-02-08T03:31:41;106314.31;;;-2.71;100.00
64298;BME280;50639;53.270;7.956;2023-02-08T03:34:20;106259.88;;;-2.75;100.00
64298;BME280;50639;53.270;7.956;2023-02-08T03:36:54;106282.72;;;-2.77;100.00
64298;BME280;50639;53.270;7.956;2023-02-08T03:39:25;106322.22;;;-2.76;100.00
64298;BME280;50639;53.270;7.956;2023-02-08T03:41:56;106319.59;;;-2.74;100.00
64298;BME280;50639;53.270;7.956;2023-02-08T03:44:29;106287.09;;;-2.78;100.00
64298;BME280;50639;53.270;7.956;2023-02-08T03:47:01;106254.63;;;-2.81;100.00
64298;BME280;50639;53.270;7.956;2023-02-08T03:49:34;106063.34;;;-3.00;100.00
64298;BME280;50639;53.270;7.956;2023-02-08T03:52:05;106210.78;;;-2.93;100.00
64298;BME280;50639;53.270;7.956;2023-02-08T03:54:35;106309.97;;;-2.86;100.00
64298;BME280;50639;53.270;7.956;2023-02-08T03:57:20;106151.09;;;-2.95;100.00
64298;BME280;50639;53.270;7.956;2023-02-08T04:00:03;106283.66;;;-2.87;100.00
64298;BME280;50639;53.270;7.956;2023-02-08T04:02:41;106266.97;;;-2.89;100.00
64298;BME280;50639;53.270;7.956;2023-02-08T04:05:08;106208.16;;;-2.93;100.00
64298;BME280;50639;53.270;7.956;2023-02-08T04:07:34;106178.31;;;-2.98;100.00
64298;BME280;50639;53.270;7.956;2023-02-08T04:09:59;106145.91;;;-3.04;100.00
64298;BME280;50639;53.270;7.956;2023-02-08T04:12:25;106173.97;;;-3.03;100.00
64298;BME280;50639;53.270;7.956;2023-02-08T04:14:50;106219.63;;;-3.01;100.00
64298;BME280;50639;53.270;7.956;2023-02-08T04:17:16;106274.91;;;-2.97;100.00
64298;BME280;50639;53.270;7.956;2023-02-08T04:19:41;106123.09;;;-3.08;100.00
64298;BME280;50639;53.270;7.956;2023-02-08T04:22:06;106091.53;;;-3.14;100.00
64298;BME280;50639;53.270;7.956;2023-02-08T04:24:32;106081.91;;;-3.20;100.00
64298;BME280;50639;53.270;7.956;2023-02-08T04:26:57;106106.47;;;-3.22;100.00
64298;BME280;50639;53.270;7.956;2023-02-08T04:29:23;106211.81;;;-3.16;100.00
64298;BME280;50639;53.270;7.956;2023-02-08T04:31:48;106244.28;;;-3.14;100.00
64298;BME280;50639;53.270;7.956;2023-02-08T04:34:14;106195.13;;;-3.17;100.00
64298;BME280;50639;53.270;7.956;2023-02-08T04:36:39;106201.25;;;-3.18;100.00
64298;BME280;50639;53.270;7.956;2023-02-08T04:39:05;106276.72;;;-3.14;100.00
64298;BME280;50639;53.270;7.956;2023-02-08T04:41:30;106334.66;;;-3.09;100.00
64298;BME280;50639;53.270;7.956;2023-02-08T04:43:56;106339.06;;;-3.08;100.00
64298;BME280;50639;53.270;7.956;2023-02-08T04:46:21;106348.69;;;-3.07;100.00
64298;BME280;50639;53.270;7.956;2023-02-08T04:48:47;106326.75;;;-3.08;100.00
64298;BME280;50639;53.270;7.956;2023-02-08T04:51:12;106370.63;;;-3.04;100.00
64298;BME280;50639;53.270;7.956;2023-02-08T04:53:38;106391.72;;;-3.02;100.00
64298;BME280;50639;53.270;7.956;2023-02-08T04:56:03;106282.84;;;-3.01;100.00
64298;BME280;50639;53.270;7.956;2023-02-08T04:58:32;106266.13;;;-3.02;100.00
64298;BME280;50639;53.270;7.956;2023-02-08T05:00:57;106183.66;;;-3.07;100.00
64298;BME280;50639;53.270;7.956;2023-02-08T05:03:22;106024.81;;;-3.18;100.00
64298;BME280;50639;53.270;7.956;2023-02-08T05:05:58;106052.94;;;-3.21;100.00
64298;BME280;50639;53.270;7.956;2023-02-08T05:08:24;106098.56;;;-3.19;100.00
64298;BME280;50639;53.270;7.956;2023-02-08T05:10:50;106163.50;;;-3.15;100.00
64298;BME280;50639;53.270;7.956;2023-02-08T05:13:16;106170.50;;;-3.11;100.00
64298;BME280;50639;53.270;7.956;2023-02-08T05:15:42;106179.28;;;-3.11;100.00
64298;BME280;50639;53.270;7.956;2023-02-08T05:18:07;106188.94;;;-3.11;100.00
64298;BME280;50639;53.270;7.956;2023-02-08T05:20:33;106209.16;;;-3.10;100.00
64298;BME280;50639;53.270;7.956;2023-02-08T05:22:58;106184.56;;;-3.12;100.00
64298;BME280;50639;53.270;7.956;2023-02-08T05:25:24;106157.38;;;-3.14;100.00
64298;BME280;50639;53.270;7.956;2023-02-08T05:27:50;106208.25;;;-3.14;100.00
64298;BME280;50639;53.270;7.956;2023-02-08T05:30:15;106238.13;;;-3.10;100.00
64298;BME280;50639;53.270;7.956;2023-02-08T05:32:41;106203.88;;;-3.13;100.00
64298;BME280;50639;53.270;7.956;2023-02-08T05:35:06;106229.34;;;-3.12;100.00
64298;BME280;50639;53.270;7.956;2023-02-08T05:37:32;106225.81;;;-3.11;100.00
64298;BME280;50639;53.270;7.956;2023-02-08T05:39:57;106128.41;;;-3.17;100.00
64298;BME280;50639;53.270;7.956;2023-02-08T05:42:23;106052.09;;;-3.26;100.00
64298;BME280;50639;53.270;7.956;2023-02-08T05:44:49;106049.50;;;-3.31;100.00
64298;BME280;50639;53.270;7.956;2023-02-08T05:47:14;106095.13;;;-3.30;100.00
64298;BME280;50639;53.270;7.956;2023-02-08T05:49:40;106118.81;;;-3.29;100.00
64298;BME280;50639;53.270;7.956;2023-02-08T05:52:05;106119.69;;;-3.28;100.00
64298;BME280;50639;53.270;7.956;2023-02-08T05:54:31;106161.81;;;-3.28;100.00
64298;BME280;50639;53.270;7.956;2023-02-08T05:56:56;106155.69;;;-3.29;100.00
64298;BME280;50639;53.270;7.956;2023-02-08T05:59:21;106212.72;;;-3.25;100.00
64298;BME280;50639;53.270;7.956;2023-02-08T06:01:47;106257.47;;;-3.23;100.00
64298;BME280;50639;53.270;7.956;2023-02-08T06:04:13;106267.09;;;-3.22;100.00
64298;BME280;50639;53.270;7.956;2023-02-08T06:06:39;106267.97;;;-3.22;100.00
64298;BME280;50639;53.270;7.956;2023-02-08T06:09:04;106289.06;;;-3.20;100.00
64298;BME280;50639;53.270;7.956;2023-02-08T06:11:29;106273.28;;;-3.20;100.00
64298;BME280;50639;53.270;7.956;2023-02-08T06:13:55;106220.59;;;-3.23;100.00
64298;BME280;50639;53.270;7.956;2023-02-08T06:16:20;106194.28;;;-3.26;100.00
64298;BME280;50639;53.270;7.956;2023-02-08T06:18:46;106249.56;;;-3.23;100.00
64298;BME280;50639;53.270;7.956;2023-02-08T06:21:11;106198.66;;;-3.28;100.00
64298;BME280;50639;53.270;7.956;2023-02-08T06:23:37;106057.47;;;-3.42;100.00
64298;BME280;50639;53.270;7.956;2023-02-08T06:26:02;106167.13;;;-3.38;100.00
64298;BME280;50639;53.270;7.956;2023-02-08T06:28:28;106278.56;;;-3.31;100.00
64298;BME280;50639;53.270;7.956;2023-02-08T06:30:53;106321.56;;;-3.27;100.00
64298;BME280;50639;53.270;7.956;2023-02-08T06:33:19;106346.13;;;-3.25;100.00
64298;BME280;50639;53.270;7.956;2023-02-08T06:35:45;106393.50;;;-3.22;100.00
64298;BME280;50639;53.270;7.956;2023-02-08T06:38:11;106429.50;;;-3.18;100.00
64298;BME280;50639;53.270;7.956;2023-02-08T06:40:37;106457.56;;;-3.16;100.00
64298;BME280;50639;53.270;7.956;2023-02-08T06:43:02;106444.41;;;-3.16;100.00
64298;BME280;50639;53.270;7.956;2023-02-08T06:45:28;106460.22;;;-3.14;100.00
64298;BME280;50639;53.270;7.956;2023-02-08T06:47:53;106462.84;;;-3.13;100.00
64298;BME280;50639;53.270;7.956;2023-02-08T06:50:18;106494.44;;;-3.11;100.00
64298;BME280;50639;53.270;7.956;2023-02-08T06:52:44;106407.56;;;-3.14;100.00
64298;BME280;50639;53.270;7.956;2023-02-08T06:55:10;106238.16;;;-3.24;100.00
64298;BME280;50639;53.270;7.956;2023-02-08T06:57:35;106266.22;;;-3.24;100.00
64298;BME280;50639;53.270;7.956;2023-02-08T07:00:01;106210.94;;;-3.26;100.00
64298;BME280;50639;53.270;7.956;2023-02-08T07:02:26;106330.28;;;-3.18;100.00
64298;BME280;50639;53.270;7.956;2023-02-08T07:04:52;106418.97;;;-3.12;100.00
64298;BME280;50639;53.270;7.956;2023-02-08T07:07:17;106680.63;;;-2.98;100.00
64298;BME280;50639;53.270;7.956;2023-02-08T07:09:43;107040.91;;;-2.66;100.00
64298;BME280;50639;53.270;7.956;2023-02-08T07:12:09;106707.00;;;-2.76;100.00
64298;BME280;50639;53.270;7.956;2023-02-08T07:14:38;106548.03;;;-2.82;100.00
64298;BME280;50639;53.270;7.956;2023-02-08T07:17:03;106454.03;;;-2.88;100.00
64298;BME280;50639;53.270;7.956;2023-02-08T07:19:29;106411.88;;;-2.91;100.00
64298;BME280;50639;53.270;7.956;2023-02-08T07:21:56;106374.16;;;-2.94;100.00
64298;BME280;50639;53.270;7.956;2023-02-08T07:24:22;106437.34;;;-2.91;100.00
64298;BME280;50639;53.270;7.956;2023-02-08T07:26:48;106421.53;;;-2.91;100.00
64298;BME280;50639;53.270;7.956;2023-02-08T07:29:14;106378.50;;;-2.93;100.00
64298;BME280;50639;53.270;7.956;2023-02-08T07:31:39;106180.16;;;-3.12;100.00
64298;BME280;50639;53.270;7.956;2023-02-08T07:34:05;106165.28;;;-3.17;100.00
64298;BME280;50639;53.270;7.956;2023-02-08T07:36:30;106334.66;;;-3.06;100.00
64298;BME280;50639;53.270;7.956;2023-02-08T07:38:56;106513.75;;;-2.93;100.00
64298;BME280;50639;53.270;7.956;2023-02-08T07:41:21;106606.88;;;-2.85;100.00
64298;BME280;50639;53.270;7.956;2023-02-08T07:43:47;106682.41;;;-2.78;100.00
64298;BME280;50639;53.270;7.956;2023-02-08T07:46:18;106774.69;;;-2.70;100.00
64298;BME280;50639;53.270;7.956;2023-02-08T07:48:44;106825.63;;;-2.65;100.00
64298;BME280;50639;53.270;7.956;2023-02-08T07:51:10;106868.72;;;-2.59;100.00
64298;BME280;50639;53.270;7.956;2023-02-08T07:53:36;106874.00;;;-2.57;100.00
64298;BME280;50639;53.270;7.956;2023-02-08T07:56:02;106874.88;;;-2.57;100.00
64298;BME280;50639;53.270;7.956;2023-02-08T07:58:28;106953.16;;;-2.49;100.00
64298;BME280;50639;53.270;7.956;2023-02-08T08:00:53;106995.34;;;-2.45;100.00
64298;BME280;50639;53.270;7.956;2023-02-08T08:03:19;107030.53;;;-2.40;100.00
64298;BME280;50639;53.270;7.956;2023-02-08T08:05:45;107100.03;;;-2.32;100.00
64298;BME280;50639;53.270;7.956;2023-02-08T08:08:11;107177.47;;;-2.24;100.00
64298;BME280;50639;53.270;7.956;2023-02-08T08:10:37;107235.56;;;-2.16;100.00
64298;BME280;50639;53.270;7.956;2023-02-08T08:13:03;107285.75;;;-2.10;100.00
64298;BME280;50639;53.270;7.956;2023-02-08T08:15:34;107339.47;;;-2.04;100.00
64298;BME280;50639;53.270;7.956;2023-02-08T08:17:59;107410.78;;;-1.95;100.00
64298;BME280;50639;53.270;7.956;2023-02-08T08:20:25;107512.09;;;-1.87;100.00
64298;BME280;50639;53.270;7.956;2023-02-08T08:22:51;107487.50;;;-1.83;100.00
64298;BME280;50639;53.270;7.956;2023-02-08T08:25:16;107573.81;;;-1.76;100.00
64298;BME280;50639;53.270;7.956;2023-02-08T08:27:42;107455.88;;;-1.77;100.00
64298;BME280;50639;53.270;7.956;2023-02-08T08:30:11;107665.53;;;-1.62;100.00
64298;BME280;50639;53.270;7.956;2023-02-08T08:32:38;107840.06;;;-1.47;100.00
64298;BME280;50639;53.270;7.956;2023-02-08T08:35:04;107973.22;;;-1.36;100.00
64298;BME280;50639;53.270;7.956;2023-02-08T08:37:30;108025.34;;;-1.28;100.00
64298;BME280;50639;53.270;7.956;2023-02-08T08:39:56;108062.47;;;-1.20;100.00
64298;BME280;50639;53.270;7.956;2023-02-08T08:42:21;108139.31;;;-1.10;100.00
64298;BME280;50639;53.270;7.956;2023-02-08T08:44:47;108163.22;;;-1.04;100.00
64298;BME280;50639;53.270;7.956;2023-02-08T08:47:12;108270.06;;;-0.93;100.00
64298;BME280;50639;53.270;7.956;2023-02-08T08:49:38;108297.53;;;-0.86;100.00
64298;BME280;50639;53.270;7.956;2023-02-08T08:52:04;108440.59;;;-0.74;100.00
64298;BME280;50639;53.270;7.956;2023-02-08T08:54:32;108499.00;;;-0.65;100.00
64298;BME280;50639;53.270;7.956;2023-02-08T08:56:58;108568.00;;;-0.56;100.00
64298;BME280;50639;53.270;7.956;2023-02-08T08:59:23;108674.09;;;-0.47;100.00
64298;BME280;50639;53.270;7.956;2023-02-08T09:01:49;108713.09;;;-0.38;100.00
64298;BME280;50639;53.270;7.956;2023-02-08T09:04:14;108791.00;;;-0.29;100.00
64298;BME280;50639;53.270;7.956;2023-02-08T09:06:40;108856.50;;;-0.22;100.00
64298;BME280;50639;53.270;7.956;2023-02-08T09:09:05;108932.59;;;-0.15;100.00
64298;BME280;50639;53.270;7.956;2023-02-08T09:11:31;109075.09;;;-0.02;100.00
64298;BME280;50639;53.270;7.956;2023-02-08T09:14:03;109218.47;;;0.09;100.00
64298;BME280;50639;53.270;7.956;2023-02-08T09:16:29;109283.22;;;0.17;100.00
64298;BME280;50639;53.270;7.956;2023-02-08T09:18:55;109410.75;;;0.28;100.00
64298;BME280;50639;53.270;7.956;2023-02-08T09:21:22;109392.38;;;0.32;100.00
64298;BME280;50639;53.270;7.956;2023-02-08T09:23:50;109570.38;;;0.44;100.00
64298;BME280;50639;53.270;7.956;2023-02-08T09:26:18;109701.53;;;0.54;100.00
64298;BME280;50639;53.270;7.956;2023-02-08T09:28:44;109812.38;;;0.62;100.00
64298;BME280;50639;53.270;7.956;2023-02-08T09:33:36;110057.19;;;0.82;100.00
64298;BME280;50639;53.270;7.956;2023-02-08T09:36:03;110258.41;;;0.92;100.00
64298;BME280;50639;53.270;7.956;2023-02-08T09:38:28;110301.09;;;0.97;100.00
64298;BME280;50639;53.270;7.956;2023-02-08T09:46:32;110817.13;;;1.18;100.00
64298;BME280;50639;53.270;7.956;2023-02-08T09:49:02;111078.06;;;1.30;100.00
64298;BME280;50639;53.270;7.956;2023-02-08T09:51:53;111301.81;;;1.40;100.00
64298;BME280;50639;53.270;7.956;2023-02-08T09:54:25;111486.50;;;1.48;100.00
64298;BME280;50639;53.270;7.956;2023-02-08T09:56:53;111641.94;;;1.55;100.00
64298;BME280;50639;53.270;7.956;2023-02-08T09:59:23;111840.13;;;1.64;100.00
64298;BME280;50639;53.270;7.956;2023-02-08T10:01:55;111902.31;;;1.66;100.00
64298;BME280;50639;53.270;7.956;2023-02-08T10:04:43;112197.38;;;1.78;100.00
64298;BME280;50639;53.270;7.956;2023-02-08T10:07:15;112316.56;;;1.84;100.00
64298;BME280;50639;53.270;7.956;2023-02-08T10:09:41;112450.91;;;1.90;100.00
64298;BME280;50639;53.270;7.956;2023-02-08T10:12:12;112667.06;;;1.99;100.00
64298;BME280;50639;53.270;7.956;2023-02-08T10:17:37;112990.47;;;2.17;100.00
64298;BME280;50639;53.270;7.956;2023-02-08T10:25:49;113500.13;;;2.41;100.00
64298;BME280;50639;53.270;7.956;2023-02-08T10:31:30;114083.88;;;2.55;100.00
64298;BME280;50639;53.270;7.956;2023-02-08T10:34:00;114263.78;;;2.61;100.00
64298;BME280;50639;53.270;7.956;2023-02-08T10:36:31;114494.16;;;2.64;100.00
64298;BME280;50639;53.270;7.956;2023-02-08T10:38:58;114840.50;;;2.71;100.00
64298;BME280;50639;53.270;7.956;2023-02-08T10:41:32;115079.94;;;2.75;100.00
64298;BME280;50639;53.270;7.956;2023-02-08T10:46:55;115862.16;;;2.98;100.00
64298;BME280;50639;53.270;7.956;2023-02-08T10:49:38;116037.25;;;3.05;100.00
64298;BME280;50639;53.270;7.956;2023-02-08T10:52:06;116179.44;;;3.11;100.00
64298;BME280;50639;53.270;7.956;2023-02-08T10:54:35;116273.78;;;3.11;100.00
64298;BME280;50639;53.270;7.956;2023-02-08T10:57:03;116506.91;;;3.19;100.00
64298;BME280;50639;53.270;7.956;2023-02-08T10:59:34;116704.50;;;3.26;100.00
64298;BME280;50639;53.270;7.956;2023-02-08T11:02:01;116939.13;;;3.37;100.00
64298;BME280;50639;53.270;7.956;2023-02-08T11:04:26;117133.50;;;3.39;100.00
64298;BME280;50639;53.270;7.956;2023-02-08T11:06:52;117349.41;;;3.49;100.00
64298;BME280;50639;53.270;7.956;2023-02-08T11:09:21;117505.72;;;3.53;100.00
64298;BME280;50639;53.270;7.956;2023-02-08T11:11:47;117684.84;;;3.60;100.00
64298;BME280;50639;53.270;7.956;2023-02-08T11:14:16;117783.41;;;3.64;100.00
64298;BME280;50639;53.270;7.956;2023-02-08T11:16:55;118060.47;;;3.76;100.00
64298;BME280;50639;53.270;7.956;2023-02-08T11:19:31;118258.94;;;3.86;100.00
64298;BME280;50639;53.270;7.956;2023-02-08T11:21:58;118146.97;;;3.87;100.00
64298;BME280;50639;53.270;7.956;2023-02-08T11:24:32;118358.09;;;3.98;100.00
64298;BME280;50639;53.270;7.956;2023-02-08T11:29:39;118368.56;;;4.19;100.00
64298;BME280;50639;53.270;7.956;2023-02-08T11:32:17;118436.38;;;4.25;100.00
64298;BME280;50639;53.270;7.956;2023-02-08T11:34:43;118448.53;;;4.29;100.00
64298;BME280;50639;53.270;7.956;2023-02-08T11:37:21;118469.91;;;4.34;100.00
64298;BME280;50639;53.270;7.956;2023-02-08T11:39:58;118571.34;;;4.38;100.00
64298;BME280;50639;53.270;7.956;2023-02-08T11:42:36;118465.06;;;4.43;100.00
64298;BME280;50639;53.270;7.956;2023-02-08T11:45:04;118475.28;;;4.51;100.00
64298;BME280;50639;53.270;7.956;2023-02-08T11:47:33;118224.03;;;4.52;100.00
64298;BME280;50639;53.270;7.956;2023-02-08T11:50:01;118101.41;;;4.55;100.00
64298;BME280;50639;53.270;7.956;2023-02-08T11:52:33;117893.47;;;4.54;100.00
64298;BME280;50639;53.270;7.956;2023-02-08T11:58:17;117663.28;;;4.60;100.00
64298;BME280;50639;53.270;7.956;2023-02-08T12:00:57;118048.31;;;4.64;100.00
64298;BME280;50639;53.270;7.956;2023-02-08T12:03:26;117960.97;;;4.64;100.00
64298;BME280;50639;53.270;7.956;2023-02-08T12:06:18;117698.06;;;4.60;100.00
64298;BME280;50639;53.270;7.956;2023-02-08T12:11:42;118663.13;;;4.76;100.00
64298;BME280;50639;53.270;7.956;2023-02-08T12:22:26;118716.22;;;5.06;100.00
64298;BME280;50639;53.270;7.956;2023-02-08T12:25:23;118626.59;;;5.09;100.00
64298;BME280;50639;53.270;7.956;2023-02-08T12:28:00;118913.28;;;5.21;100.00
64298;BME280;50639;53.270;7.956;2023-02-08T12:30:32;118759.09;;;5.17;100.00
64298;BME280;50639;53.270;7.956;2023-02-08T12:38:50;118776.63;;;5.32;100.00
64298;BME280;50639;53.270;7.956;2023-02-08T12:41:51;118637.31;;;5.37;100.00
64298;BME280;50639;53.270;7.956;2023-02-08T12:44:30;118516.97;;;5.39;100.00
64298;BME280;50639;53.270;7.956;2023-02-08T12:47:44;118451.34;;;5.48;100.00
64298;BME280;50639;53.270;7.956;2023-02-08T12:50:38;118411.38;;;5.55;100.00
64298;BME280;50639;53.270;7.956;2023-02-08T12:53:15;118282.44;;;5.59;100.00
64298;BME280;50639;53.270;7.956;2023-02-08T12:55:42;118343.75;;;5.68;100.00
64298;BME280;50639;53.270;7.956;2023-02-08T12:58:30;118477.50;;;5.78;100.00
64298;BME280;50639;53.270;7.956;2023-02-08T13:01:06;118243.72;;;5.86;100.00
64298;BME280;50639;53.270;7.956;2023-02-08T13:03:42;118114.94;;;5.92;100.00
64298;BME280;50639;53.270;7.956;2023-02-08T13:06:15;117907.69;;;5.93;100.00
64298;BME280;50639;53.270;7.956;2023-02-08T13:08:47;118075.09;;;6.00;100.00
64298;BME280;50639;53.270;7.956;2023-02-08T13:11:23;118003.56;;;6.06;100.00
64298;BME280;50639;53.270;7.956;2023-02-08T13:13:55;117765.59;;;6.05;100.00
64298;BME280;50639;53.270;7.956;2023-02-08T13:16:27;117768.06;;;6.16;100.00
64298;BME280;50639;53.270;7.956;2023-02-08T13:21:51;117956.72;;;6.22;100.00
64298;BME280;50639;53.270;7.956;2023-02-08T13:24:37;117782.03;;;6.26;100.00
64298;BME280;50639;53.270;7.956;2023-02-08T13:27:04;118139.75;;;6.32;100.00
64298;BME280;50639;53.270;7.956;2023-02-08T13:29:32;117938.91;;;6.35;100.00
64298;BME280;50639;53.270;7.956;2023-02-08T13:32:05;117761.16;;;6.43;100.00
64298;BME280;50639;53.270;7.956;2023-02-08T13:34:40;117666.69;;;6.46;100.00
64298;BME280;50639;53.270;7.956;2023-02-08T13:37:22;117532.16;;;6.50;100.00
64298;BME280;50639;53.270;7.956;2023-02-08T13:39:48;117345.91;;;6.55;100.00
64298;BME280;50639;53.270;7.956;2023-02-08T13:42:31;117145.03;;;6.65;100.00
64298;BME280;50639;53.270;7.956;2023-02-08T13:44:58;117062.38;;;6.69;100.00
64298;BME280;50639;53.270;7.956;2023-02-08T13:47:35;116876.44;;;6.70;100.00
64298;BME280;50639;53.270;7.956;2023-02-08T13:53:12;116127.31;;;6.67;100.00
64298;BME280;50639;53.270;7.956;2023-02-08T13:55:52;116147.41;;;6.71;100.00
64298;BME280;50639;53.270;7.956;2023-02-08T13:58:35;115904.66;;;6.76;100.00
64298;BME280;50639;53.270;7.956;2023-02-08T14:01:13;115622.28;;;6.79;100.00
64298;BME280;50639;53.270;7.956;2023-02-08T14:03:39;115837.75;;;6.86;100.00
64298;BME280;50639;53.270;7.956;2023-02-08T14:06:06;115452.53;;;6.90;100.00
64298;BME280;50639;53.270;7.956;2023-02-08T14:09:04;115173.59;;;6.91;100.00
64298;BME280;50639;53.270;7.956;2023-02-08T14:11:56;114457.00;;;6.90;100.00
64298;BME280;50639;53.270;7.956;2023-02-08T14:14:28;113893.59;;;6.90;100.00
64298;BME280;50639;53.270;7.956;2023-02-08T14:19:30;112564.16;;;6.89;100.00
64298;BME280;50639;53.270;7.956;2023-02-08T14:24:49;111845.63;;;6.90;100.00